sensor_id;sensor_type;location;lat;lon;timestamp;temperature;humidity
27162;DHT22;54464;50.558;9.704;2022-10-16T00:01:15;14.30;99.90
27162;DHT22;54464;50.558;9.704;2022-10-16T00:03:42;14.30;99.90
27162;DHT22;54464;50.558;9.704;2022-10-16T00:06:08;14.30;99.90
27162;DHT22;54464;50.558;9.704;2022-10-16T00:08:35;14.20;99.90
27162;DHT22;54464;50.558;9.704;2022-10-16T00:11:03;14.20;99.90
27162;DHT22;54464;50.558;9.704;2022-10-16T00:13:31;14.20;99.90
27162;DHT22;54464;50.558;9.704;2022-10-16T00:16:21;14.20;99.90
27162;DHT22;54464;50.558;9.704;2022-10-16T00:18:50;14.20;99.90
27162;DHT22;54464;50.558;9.704;2022-10-16T00:21:21;14.20;99.90
27162;DHT22;54464;50.558;9.704;2022-10-16T00:23:51;14.20;99.90
27162;DHT22;54464;50.558;9.704;2022-10-16T00:26:25;14.10;99.90
27162;DHT22;54464;50.558;9.704;2022-10-16T00:28:51;14.10;99.90
27162;DHT22;54464;50.558;9.704;2022-10-16T00:31:21;14.10;99.90
27162;DHT22;54464;50.558;9.704;2022-10-16T00:33:47;14.00;99.90
27162;DHT22;54464;50.558;9.704;2022-10-16T00:36:15;14.00;99.90
27162;DHT22;54464;50.558;9.704;2022-10-16T00:38:41;14.00;99.90
27162;DHT22;54464;50.558;9.704;2022-10-16T00:41:11;13.90;99.90
27162;DHT22;54464;50.558;9.704;2022-10-16T00:43:41;13.90;99.90
27162;DHT22;54464;50.558;9.704;2022-10-16T00:46:20;13.90;99.90
27162;DHT22;54464;50.558;9.704;2022-10-16T00:49:10;13.90;99.90
27162;DHT22;54464;50.558;9.704;2022-10-16T00:51:40;13.90;99.90
27162;DHT22;54464;50.558;9.704;2022-10-16T00:54:14;13.90;99.90
27162;DHT22;54464;50.558;9.704;2022-10-16T00:56:41;13.90;99.90
27162;DHT22;54464;50.558;9.704;2022-10-16T00:59:15;13.90;99.90
27162;DHT22;54464;50.558;9.704;2022-10-16T01:01:44;13.90;99.90
27162;DHT22;54464;50.558;9.704;2022-10-16T01:04:10;13.90;99.90
27162;DHT22;54464;50.558;9.704;2022-10-16T01:12:25;13.90;99.90
27162;DHT22;54464;50.558;9.704;2022-10-16T01:15:12;13.90;99.90
27162;DHT22;54464;50.558;9.704;2022-10-16T01:17:49;13.90;99.90
27162;DHT22;54464;50.558;9.704;2022-10-16T01:20:30;13.90;99.90
27162;DHT22;54464;50.558;9.704;2022-10-16T01:23:06;13.80;99.90
27162;DHT22;54464;50.558;9.704;2022-10-16T01:31:30;13.90;99.90
27162;DHT22;54464;50.558;9.704;2022-10-16T01:36:36;13.90;99.90
27162;DHT22;54464;50.558;9.704;2022-10-16T01:39:03;13.90;99.90
27162;DHT22;54464;50.558;9.704;2022-10-16T01:41:41;13.90;99.90
27162;DHT22;54464;50.558;9.704;2022-10-16T01:44:16;13.90;99.90
27162;DHT22;54464;50.558;9.704;2022-10-16T01:46:44;13.90;99.90
27162;DHT22;54464;50.558;9.704;2022-10-16T01:49:12;13.90;99.90
27162;DHT22;54464;50.558;9.704;2022-10-16T01:51:38;13.90;99.90
27162;DHT22;54464;50.558;9.704;2022-10-16T01:54:06;13.90;99.90
27162;DHT22;54464;50.558;9.704;2022-10-16T01:56:34;13.90;99.90
27162;DHT22;54464;50.558;9.704;2022-10-16T01:59:11;13.90;99.90
27162;DHT22;54464;50.558;9.704;2022-10-16T02:01:45;13.90;99.90
27162;DHT22;54464;50.558;9.704;2022-10-16T02:04:20;14.00;99.90
27162;DHT22;54464;50.558;9.704;2022-10-16T02:06:48;14.00;99.90
27162;DHT22;54464;50.558;9.704;2022-10-16T02:09:13;14.00;99.90
27162;DHT22;54464;50.558;9.704;2022-10-16T02:11:42;13.90;99.90
27162;DHT22;54464;50.558;9.704;2022-10-16T02:14:08;14.00;99.90
27162;DHT22;54464;50.558;9.704;2022-10-16T02:16:39;14.00;99.90
27162;DHT22;54464;50.558;9.704;2022-10-16T02:19:06;13.90;99.90
27162;DHT22;54464;50.558;9.704;2022-10-16T02:22:00;13.90;99.90
27162;DHT22;54464;50.558;9.704;2022-10-16T02:24:45;13.90;99.90
27162;DHT22;54464;50.558;9.704;2022-10-16T02:27:41;14.00;99.90
27162;DHT22;54464;50.558;9.704;2022-10-16T02:30:13;14.00;99.90
27162;DHT22;54464;50.558;9.704;2022-10-16T02:32:42;14.00;99.90
27162;DHT22;54464;50.558;9.704;2022-10-16T02:35:09;14.00;99.90
27162;DHT22;54464;50.558;9.704;2022-10-16T02:37:36;14.00;99.90
27162;DHT22;54464;50.558;9.704;2022-10-16T02:40:04;14.10;99.90
27162;DHT22;54464;50.558;9.704;2022-10-16T02:42:35;14.10;99.90
27162;DHT22;54464;50.558;9.704;2022-10-16T02:45:02;14.10;99.90
27162;DHT22;54464;50.558;9.704;2022-10-16T02:47:29;14.10;99.90
27162;DHT22;54464;50.558;9.704;2022-10-16T02:49:54;14.10;99.90
27162;DHT22;54464;50.558;9.704;2022-10-16T02:52:20;14.10;99.90
27162;DHT22;54464;50.558;9.704;2022-10-16T02:54:46;14.10;99.90
27162;DHT22;54464;50.558;9.704;2022-10-16T02:57:11;14.10;99.90
27162;DHT22;54464;50.558;9.704;2022-10-16T02:59:37;14.10;99.90
27162;DHT22;54464;50.558;9.704;2022-10-16T03:02:03;14.10;99.90
27162;DHT22;54464;50.558;9.704;2022-10-16T03:04:29;14.10;99.90
27162;DHT22;54464;50.558;9.704;2022-10-16T03:07:00;14.10;99.90
27162;DHT22;54464;50.558;9.704;2022-10-16T03:09:25;14.10;99.90
27162;DHT22;54464;50.558;9.704;2022-10-16T03:11:51;14.10;99.90
27162;DHT22;54464;50.558;9.704;2022-10-16T03:14:17;14.10;99.90
27162;DHT22;54464;50.558;9.704;2022-10-16T03:16:43;14.10;99.90
27162;DHT22;54464;50.558;9.704;2022-10-16T03:19:08;14.00;99.90
27162;DHT22;54464;50.558;9.704;2022-10-16T03:21:34;14.10;99.90
27162;DHT22;54464;50.558;9.704;2022-10-16T03:24:00;14.00;99.90
27162;DHT22;54464;50.558;9.704;2022-10-16T03:26:25;14.00;99.90
27162;DHT22;54464;50.558;9.704;2022-10-16T03:28:54;14.00;99.90
27162;DHT22;54464;50.558;9.704;2022-10-16T03:31:25;14.00;99.90
27162;DHT22;54464;50.558;9.704;2022-10-16T03:33:51;14.00;99.90
27162;DHT22;54464;50.558;9.704;2022-10-16T03:36:17;14.00;99.90
27162;DHT22;54464;50.558;9.704;2022-10-16T03:38:42;14.00;99.90
27162;DHT22;54464;50.558;9.704;2022-10-16T03:41:08;14.00;99.90
27162;DHT22;54464;50.558;9.704;2022-10-16T03:43:34;13.90;99.90
27162;DHT22;54464;50.558;9.704;2022-10-16T03:46:05;13.90;99.90
27162;DHT22;54464;50.558;9.704;2022-10-16T03:48:31;13.90;99.90
27162;DHT22;54464;50.558;9.704;2022-10-16T03:50:57;13.90;99.90
27162;DHT22;54464;50.558;9.704;2022-10-16T03:53:24;13.90;99.90
27162;DHT22;54464;50.558;9.704;2022-10-16T03:56:01;13.90;99.90
27162;DHT22;54464;50.558;9.704;2022-10-16T03:58:27;14.00;99.90
27162;DHT22;54464;50.558;9.704;2022-10-16T04:00:56;14.00;99.90
27162;DHT22;54464;50.558;9.704;2022-10-16T04:03:21;14.00;99.90
27162;DHT22;54464;50.558;9.704;2022-10-16T04:05:51;14.00;99.90
27162;DHT22;54464;50.558;9.704;2022-10-16T04:08:17;13.90;99.90
27162;DHT22;54464;50.558;9.704;2022-10-16T04:10:43;13.90;99.90
27162;DHT22;54464;50.558;9.704;2022-10-16T04:13:09;13.90;99.90
27162;DHT22;54464;50.558;9.704;2022-10-16T04:15:35;13.80;99.90
27162;DHT22;54464;50.558;9.704;2022-10-16T04:18:05;13.80;99.90
27162;DHT22;54464;50.558;9.704;2022-10-16T04:20:31;13.80;99.90
27162;DHT22;54464;50.558;9.704;2022-10-16T04:23:00;13.80;99.90
27162;DHT22;54464;50.558;9.704;2022-10-16T04:25:25;13.70;99.90
27162;DHT22;54464;50.558;9.704;2022-10-16T04:27:53;13.70;99.90
27162;DHT22;54464;50.558;9.704;2022-10-16T04:30:19;13.70;99.90
27162;DHT22;54464;50.558;9.704;2022-10-16T04:32:48;13.70;99.90
27162;DHT22;54464;50.558;9.704;2022-10-16T04:35:15;13.60;99.90
27162;DHT22;54464;50.558;9.704;2022-10-16T04:37:41;13.60;99.90
27162;DHT22;54464;50.558;9.704;2022-10-16T04:40:07;13.60;99.90
27162;DHT22;54464;50.558;9.704;2022-10-16T04:42:33;13.60;99.90
27162;DHT22;54464;50.558;9.704;2022-10-16T04:44:58;13.60;99.90
27162;DHT22;54464;50.558;9.704;2022-10-16T04:47:24;13.60;99.90
27162;DHT22;54464;50.558;9.704;2022-10-16T04:49:49;13.60;99.90
27162;DHT22;54464;50.558;9.704;2022-10-16T04:52:15;13.60;99.90
27162;DHT22;54464;50.558;9.704;2022-10-16T04:54:41;13.50;99.90
27162;DHT22;54464;50.558;9.704;2022-10-16T04:57:07;13.50;99.90
27162;DHT22;54464;50.558;9.704;2022-10-16T04:59:32;13.50;99.90
27162;DHT22;54464;50.558;9.704;2022-10-16T05:02:01;13.50;99.90
27162;DHT22;54464;50.558;9.704;2022-10-16T05:04:27;13.50;99.90
27162;DHT22;54464;50.558;9.704;2022-10-16T05:06:55;13.50;99.90
27162;DHT22;54464;50.558;9.704;2022-10-16T05:09:20;13.50;99.90
27162;DHT22;54464;50.558;9.704;2022-10-16T05:11:46;13.50;99.90
27162;DHT22;54464;50.558;9.704;2022-10-16T05:14:12;13.50;99.90
27162;DHT22;54464;50.558;9.704;2022-10-16T05:16:37;13.50;99.90
27162;DHT22;54464;50.558;9.704;2022-10-16T05:19:03;13.50;99.90
27162;DHT22;54464;50.558;9.704;2022-10-16T05:21:29;13.50;99.90
27162;DHT22;54464;50.558;9.704;2022-10-16T05:23:57;13.50;99.90
27162;DHT22;54464;50.558;9.704;2022-10-16T05:26:23;13.50;99.90
27162;DHT22;54464;50.558;9.704;2022-10-16T05:28:49;13.50;99.90
27162;DHT22;54464;50.558;9.704;2022-10-16T05:31:15;13.50;99.90
27162;DHT22;54464;50.558;9.704;2022-10-16T05:33:41;13.40;99.90
27162;DHT22;54464;50.558;9.704;2022-10-16T05:36:20;13.40;99.90
27162;DHT22;54464;50.558;9.704;2022-10-16T05:38:50;13.50;99.90
27162;DHT22;54464;50.558;9.704;2022-10-16T05:41:15;13.40;99.90
27162;DHT22;54464;50.558;9.704;2022-10-16T05:43:47;13.50;99.90
27162;DHT22;54464;50.558;9.704;2022-10-16T05:46:12;13.40;99.90
27162;DHT22;54464;50.558;9.704;2022-10-16T05:48:38;13.40;99.90
27162;DHT22;54464;50.558;9.704;2022-10-16T05:51:11;13.40;99.90
27162;DHT22;54464;50.558;9.704;2022-10-16T05:53:38;13.40;99.90
27162;DHT22;54464;50.558;9.704;2022-10-16T05:56:08;13.40;99.90
27162;DHT22;54464;50.558;9.704;2022-10-16T05:58:36;13.40;99.90
27162;DHT22;54464;50.558;9.704;2022-10-16T06:01:05;13.40;99.90
27162;DHT22;54464;50.558;9.704;2022-10-16T06:03:32;13.40;99.90
27162;DHT22;54464;50.558;9.704;2022-10-16T06:06:07;13.40;99.90
27162;DHT22;54464;50.558;9.704;2022-10-16T06:08:33;13.30;99.90
27162;DHT22;54464;50.558;9.704;2022-10-16T06:11:07;13.30;99.90
27162;DHT22;54464;50.558;9.704;2022-10-16T06:13:33;13.30;99.90
27162;DHT22;54464;50.558;9.704;2022-10-16T06:15:59;13.30;99.90
27162;DHT22;54464;50.558;9.704;2022-10-16T06:18:29;13.30;99.90
27162;DHT22;54464;50.558;9.704;2022-10-16T06:20:58;13.30;99.90
27162;DHT22;54464;50.558;9.704;2022-10-16T06:23:25;13.30;99.90
27162;DHT22;54464;50.558;9.704;2022-10-16T06:28:31;13.30;99.90
27162;DHT22;54464;50.558;9.704;2022-10-16T06:31:02;13.30;99.90
27162;DHT22;54464;50.558;9.704;2022-10-16T06:33:28;13.30;99.90
27162;DHT22;54464;50.558;9.704;2022-10-16T06:36:03;13.30;99.90
27162;DHT22;54464;50.558;9.704;2022-10-16T06:38:29;13.30;99.90
27162;DHT22;54464;50.558;9.704;2022-10-16T06:40:55;13.30;99.90
27162;DHT22;54464;50.558;9.704;2022-10-16T06:43:21;13.30;99.90
27162;DHT22;54464;50.558;9.704;2022-10-16T06:45:53;13.30;99.90
27162;DHT22;54464;50.558;9.704;2022-10-16T06:48:19;13.40;99.90
27162;DHT22;54464;50.558;9.704;2022-10-16T06:53:31;13.40;99.90
27162;DHT22;54464;50.558;9.704;2022-10-16T06:55:57;13.40;99.90
27162;DHT22;54464;50.558;9.704;2022-10-16T06:58:23;13.50;99.90
27162;DHT22;54464;50.558;9.704;2022-10-16T07:00:55;13.50;99.90
27162;DHT22;54464;50.558;9.704;2022-10-16T07:03:21;13.50;99.90
27162;DHT22;54464;50.558;9.704;2022-10-16T07:05:46;13.50;99.90
27162;DHT22;54464;50.558;9.704;2022-10-16T07:08:12;13.60;99.90
27162;DHT22;54464;50.558;9.704;2022-10-16T07:10:38;13.60;99.90
27162;DHT22;54464;50.558;9.704;2022-10-16T07:13:03;13.70;99.90
27162;DHT22;54464;50.558;9.704;2022-10-16T07:15:29;13.70;99.90
27162;DHT22;54464;50.558;9.704;2022-10-16T07:17:55;13.70;99.90
27162;DHT22;54464;50.558;9.704;2022-10-16T07:20:20;13.80;99.90
27162;DHT22;54464;50.558;9.704;2022-10-16T07:22:46;13.80;99.90
27162;DHT22;54464;50.558;9.704;2022-10-16T07:25:21;13.90;99.90
27162;DHT22;54464;50.558;9.704;2022-10-16T07:27:47;13.90;99.90
27162;DHT22;54464;50.558;9.704;2022-10-16T07:30:12;13.90;99.90
27162;DHT22;54464;50.558;9.704;2022-10-16T07:32:38;13.90;99.90
27162;DHT22;54464;50.558;9.704;2022-10-16T07:35:04;14.00;99.90
27162;DHT22;54464;50.558;9.704;2022-10-16T07:37:30;14.00;99.90
27162;DHT22;54464;50.558;9.704;2022-10-16T07:39:55;14.00;99.90
27162;DHT22;54464;50.558;9.704;2022-10-16T07:42:21;14.00;99.90
27162;DHT22;54464;50.558;9.704;2022-10-16T07:44:46;14.10;99.90
27162;DHT22;54464;50.558;9.704;2022-10-16T07:47:12;14.10;99.90
27162;DHT22;54464;50.558;9.704;2022-10-16T07:49:38;14.10;99.90
27162;DHT22;54464;50.558;9.704;2022-10-16T07:52:03;14.10;99.90
27162;DHT22;54464;50.558;9.704;2022-10-16T07:54:29;14.10;99.90
27162;DHT22;54464;50.558;9.704;2022-10-16T07:56:54;14.20;99.90
27162;DHT22;54464;50.558;9.704;2022-10-16T07:59:20;14.30;99.90
27162;DHT22;54464;50.558;9.704;2022-10-16T08:01:46;14.30;99.90
27162;DHT22;54464;50.558;9.704;2022-10-16T08:04:11;14.40;99.90
27162;DHT22;54464;50.558;9.704;2022-10-16T08:06:39;14.40;99.90
27162;DHT22;54464;50.558;9.704;2022-10-16T08:09:06;14.40;99.90
27162;DHT22;54464;50.558;9.704;2022-10-16T08:11:32;14.40;99.90
27162;DHT22;54464;50.558;9.704;2022-10-16T08:13:58;14.50;99.90
27162;DHT22;54464;50.558;9.704;2022-10-16T08:16:24;14.50;99.90
27162;DHT22;54464;50.558;9.704;2022-10-16T08:18:50;14.60;99.90
27162;DHT22;54464;50.558;9.704;2022-10-16T08:21:20;14.60;99.90
27162;DHT22;54464;50.558;9.704;2022-10-16T08:23:46;14.60;99.90
27162;DHT22;54464;50.558;9.704;2022-10-16T08:26:12;14.60;99.90
27162;DHT22;54464;50.558;9.704;2022-10-16T08:28:38;14.70;99.90
27162;DHT22;54464;50.558;9.704;2022-10-16T08:33:32;14.80;99.90
27162;DHT22;54464;50.558;9.704;2022-10-16T08:36:00;14.80;99.90
27162;DHT22;54464;50.558;9.704;2022-10-16T08:38:26;14.80;99.90
27162;DHT22;54464;50.558;9.704;2022-10-16T08:40:54;14.80;99.90
27162;DHT22;54464;50.558;9.704;2022-10-16T08:48:54;14.80;99.90
27162;DHT22;54464;50.558;9.704;2022-10-16T08:51:26;14.80;99.90
27162;DHT22;54464;50.558;9.704;2022-10-16T08:54:03;14.80;99.90
27162;DHT22;54464;50.558;9.704;2022-10-16T08:56:30;14.80;99.90
27162;DHT22;54464;50.558;9.704;2022-10-16T08:58:58;14.80;99.90
27162;DHT22;54464;50.558;9.704;2022-10-16T09:01:49;14.80;99.90
27162;DHT22;54464;50.558;9.704;2022-10-16T09:04:53;14.80;99.90
27162;DHT22;54464;50.558;9.704;2022-10-16T09:07:43;14.80;99.90
27162;DHT22;54464;50.558;9.704;2022-10-16T09:15:46;15.00;99.90
27162;DHT22;54464;50.558;9.704;2022-10-16T09:18:29;15.10;99.90
27162;DHT22;54464;50.558;9.704;2022-10-16T09:21:12;15.10;99.90
27162;DHT22;54464;50.558;9.704;2022-10-16T09:23:39;15.10;99.90
27162;DHT22;54464;50.558;9.704;2022-10-16T09:26:10;15.10;99.90
27162;DHT22;54464;50.558;9.704;2022-10-16T09:28:36;15.10;99.90
27162;DHT22;54464;50.558;9.704;2022-10-16T09:31:02;15.20;99.90
27162;DHT22;54464;50.558;9.704;2022-10-16T09:33:35;15.20;99.90
27162;DHT22;54464;50.558;9.704;2022-10-16T09:36:03;15.20;99.90
27162;DHT22;54464;50.558;9.704;2022-10-16T09:38:33;15.20;99.90
27162;DHT22;54464;50.558;9.704;2022-10-16T09:41:01;15.20;99.90
27162;DHT22;54464;50.558;9.704;2022-10-16T09:43:40;15.10;99.90
27162;DHT22;54464;50.558;9.704;2022-10-16T09:46:09;15.10;99.90
27162;DHT22;54464;50.558;9.704;2022-10-16T09:48:48;15.00;99.90
27162;DHT22;54464;50.558;9.704;2022-10-16T09:51:29;15.00;99.90
27162;DHT22;54464;50.558;9.704;2022-10-16T09:54:00;15.00;99.90
27162;DHT22;54464;50.558;9.704;2022-10-16T09:56:31;14.90;99.90
27162;DHT22;54464;50.558;9.704;2022-10-16T09:59:08;15.00;99.90
27162;DHT22;54464;50.558;9.704;2022-10-16T10:04:04;14.80;99.90
27162;DHT22;54464;50.558;9.704;2022-10-16T10:06:36;14.80;99.90
27162;DHT22;54464;50.558;9.704;2022-10-16T10:09:38;14.90;99.90
27162;DHT22;54464;50.558;9.704;2022-10-16T10:12:05;14.90;99.90
27162;DHT22;54464;50.558;9.704;2022-10-16T10:14:40;15.00;99.90
27162;DHT22;54464;50.558;9.704;2022-10-16T10:22:45;15.40;99.90
27162;DHT22;54464;50.558;9.704;2022-10-16T10:30:48;15.40;99.90
27162;DHT22;54464;50.558;9.704;2022-10-16T10:36:22;15.20;99.90
27162;DHT22;54464;50.558;9.704;2022-10-16T10:50:50;15.30;99.90
27162;DHT22;54464;50.558;9.704;2022-10-16T10:53:45;15.30;99.90
27162;DHT22;54464;50.558;9.704;2022-10-16T10:56:27;15.30;99.90
27162;DHT22;54464;50.558;9.704;2022-10-16T11:02:01;15.30;99.90
27162;DHT22;54464;50.558;9.704;2022-10-16T11:07:32;15.20;99.90
27162;DHT22;54464;50.558;9.704;2022-10-16T11:10:13;15.20;99.90
27162;DHT22;54464;50.558;9.704;2022-10-16T11:12:44;15.20;99.90
27162;DHT22;54464;50.558;9.704;2022-10-16T11:15:15;15.20;99.90
27162;DHT22;54464;50.558;9.704;2022-10-16T11:17:57;15.30;99.90
27162;DHT22;54464;50.558;9.704;2022-10-16T11:20:34;15.20;99.90
27162;DHT22;54464;50.558;9.704;2022-10-16T11:23:23;15.20;99.90
27162;DHT22;54464;50.558;9.704;2022-10-16T11:25:51;15.20;99.90
27162;DHT22;54464;50.558;9.704;2022-10-16T11:28:23;15.20;99.90
27162;DHT22;54464;50.558;9.704;2022-10-16T11:31:13;15.20;99.90
27162;DHT22;54464;50.558;9.704;2022-10-16T11:34:00;15.20;99.90
27162;DHT22;54464;50.558;9.704;2022-10-16T11:36:39;15.20;99.90
27162;DHT22;54464;50.558;9.704;2022-10-16T11:39:20;15.20;99.90
27162;DHT22;54464;50.558;9.704;2022-10-16T11:41:52;15.20;99.90
27162;DHT22;54464;50.558;9.704;2022-10-16T11:47:27;15.20;99.90
27162;DHT22;54464;50.558;9.704;2022-10-16T11:54:07;15.40;99.90
27162;DHT22;54464;50.558;9.704;2022-10-16T11:55:59;15.50;99.90
27162;DHT22;54464;50.558;9.704;2022-10-16T12:01:26;15.60;99.90
27162;DHT22;54464;50.558;9.704;2022-10-16T12:08:51;16.00;99.90
27162;DHT22;54464;50.558;9.704;2022-10-16T12:14:06;16.10;99.90
27162;DHT22;54464;50.558;9.704;2022-10-16T12:16:32;16.10;99.90
27162;DHT22;54464;50.558;9.704;2022-10-16T12:19:14;16.20;99.90
27162;DHT22;54464;50.558;9.704;2022-10-16T12:21:41;16.20;99.90
27162;DHT22;54464;50.558;9.704;2022-10-16T12:24:21;16.30;99.90
27162;DHT22;54464;50.558;9.704;2022-10-16T12:26:48;16.40;99.90
27162;DHT22;54464;50.558;9.704;2022-10-16T12:29:44;16.40;99.90
27162;DHT22;54464;50.558;9.704;2022-10-16T12:32:38;16.40;99.90
27162;DHT22;54464;50.558;9.704;2022-10-16T12:35:06;16.50;99.90
27162;DHT22;54464;50.558;9.704;2022-10-16T12:37:42;16.50;99.90
27162;DHT22;54464;50.558;9.704;2022-10-16T12:40:31;16.50;99.90
27162;DHT22;54464;50.558;9.704;2022-10-16T12:42:57;16.50;99.90
27162;DHT22;54464;50.558;9.704;2022-10-16T12:45:30;16.50;99.90
27162;DHT22;54464;50.558;9.704;2022-10-16T12:47:57;16.50;99.90
27162;DHT22;54464;50.558;9.704;2022-10-16T12:50:38;16.40;99.90
27162;DHT22;54464;50.558;9.704;2022-10-16T12:53:21;16.30;99.90
27162;DHT22;54464;50.558;9.704;2022-10-16T13:06:51;16.40;99.90
27162;DHT22;54464;50.558;9.704;2022-10-16T13:09:46;16.40;99.90
27162;DHT22;54464;50.558;9.704;2022-10-16T13:18:13;16.40;99.90
27162;DHT22;54464;50.558;9.704;2022-10-16T13:20:55;16.30;99.90
27162;DHT22;54464;50.558;9.704;2022-10-16T13:29:01;16.60;99.90
27162;DHT22;54464;50.558;9.704;2022-10-16T13:31:28;16.70;99.90
27162;DHT22;54464;50.558;9.704;2022-10-16T13:33:58;16.60;99.90
27162;DHT22;54464;50.558;9.704;2022-10-16T13:36:42;16.60;99.90
27162;DHT22;54464;50.558;9.704;2022-10-16T13:39:30;16.60;99.90
27162;DHT22;54464;50.558;9.704;2022-10-16T13:42:46;16.60;99.90
27162;DHT22;54464;50.558;9.704;2022-10-16T13:44:54;16.60;99.90
27162;DHT22;54464;50.558;9.704;2022-10-16T13:47:22;16.60;99.90
27162;DHT22;54464;50.558;9.704;2022-10-16T13:50:11;16.60;99.90
27162;DHT22;54464;50.558;9.704;2022-10-16T13:52:37;16.50;99.90
27162;DHT22;54464;50.558;9.704;2022-10-16T13:55:10;16.50;99.90
27162;DHT22;54464;50.558;9.704;2022-10-16T13:57:35;16.40;99.90
27162;DHT22;54464;50.558;9.704;2022-10-16T14:00:01;16.50;99.90
27162;DHT22;54464;50.558;9.704;2022-10-16T14:02:30;16.50;99.90
27162;DHT22;54464;50.558;9.704;2022-10-16T14:04:57;16.50;99.90
27162;DHT22;54464;50.558;9.704;2022-10-16T14:07:29;16.60;99.90
27162;DHT22;54464;50.558;9.704;2022-10-16T14:10:02;16.50;99.90
27162;DHT22;54464;50.558;9.704;2022-10-16T14:12:29;16.50;99.90
27162;DHT22;54464;50.558;9.704;2022-10-16T14:14:55;16.40;99.90
27162;DHT22;54464;50.558;9.704;2022-10-16T14:17:24;16.40;99.90
27162;DHT22;54464;50.558;9.704;2022-10-16T14:19:53;16.40;99.90
27162;DHT22;54464;50.558;9.704;2022-10-16T14:22:39;16.40;99.90
27162;DHT22;54464;50.558;9.704;2022-10-16T14:28:19;16.80;99.90
27162;DHT22;54464;50.558;9.704;2022-10-16T14:33:24;17.30;99.90
27162;DHT22;54464;50.558;9.704;2022-10-16T14:36:01;17.30;99.90
27162;DHT22;54464;50.558;9.704;2022-10-16T14:38:28;17.30;99.90
27162;DHT22;54464;50.558;9.704;2022-10-16T14:40:57;17.40;99.90
27162;DHT22;54464;50.558;9.704;2022-10-16T14:43:34;17.50;99.90
27162;DHT22;54464;50.558;9.704;2022-10-16T14:46:11;17.60;99.90
27162;DHT22;54464;50.558;9.704;2022-10-16T14:48:41;17.60;99.90
27162;DHT22;54464;50.558;9.704;2022-10-16T14:51:13;17.60;99.90
27162;DHT22;54464;50.558;9.704;2022-10-16T14:53:39;17.60;99.90
27162;DHT22;54464;50.558;9.704;2022-10-16T14:56:09;17.60;99.90
27162;DHT22;54464;50.558;9.704;2022-10-16T14:58:39;17.60;99.90
27162;DHT22;54464;50.558;9.704;2022-10-16T15:01:05;17.50;99.90
27162;DHT22;54464;50.558;9.704;2022-10-16T15:03:32;17.40;99.90
27162;DHT22;54464;50.558;9.704;2022-10-16T15:05:57;17.30;99.90
27162;DHT22;54464;50.558;9.704;2022-10-16T15:08:23;17.20;99.90
27162;DHT22;54464;50.558;9.704;2022-10-16T15:10:49;17.20;99.90
27162;DHT22;54464;50.558;9.704;2022-10-16T15:13:14;17.10;99.90
27162;DHT22;54464;50.558;9.704;2022-10-16T15:15:43;17.10;99.90
27162;DHT22;54464;50.558;9.704;2022-10-16T15:18:09;17.00;99.90
27162;DHT22;54464;50.558;9.704;2022-10-16T15:20:37;17.00;99.90
27162;DHT22;54464;50.558;9.704;2022-10-16T15:23:06;17.00;99.90
27162;DHT22;54464;50.558;9.704;2022-10-16T15:25:42;17.00;99.90
27162;DHT22;54464;50.558;9.704;2022-10-16T15:28:09;16.90;99.90
27162;DHT22;54464;50.558;9.704;2022-10-16T15:30:36;16.90;99.90
27162;DHT22;54464;50.558;9.704;2022-10-16T15:33:03;16.90;99.90
27162;DHT22;54464;50.558;9.704;2022-10-16T15:35:28;16.90;99.90
27162;DHT22;54464;50.558;9.704;2022-10-16T15:37:54;16.90;99.90
27162;DHT22;54464;50.558;9.704;2022-10-16T15:40:21;17.00;99.90
27162;DHT22;54464;50.558;9.704;2022-10-16T15:42:47;16.90;99.90
27162;DHT22;54464;50.558;9.704;2022-10-16T15:45:13;16.90;99.90
27162;DHT22;54464;50.558;9.704;2022-10-16T15:47:40;16.90;99.90
27162;DHT22;54464;50.558;9.704;2022-10-16T15:50:08;16.90;99.90
27162;DHT22;54464;50.558;9.704;2022-10-16T15:52:34;16.80;99.90
27162;DHT22;54464;50.558;9.704;2022-10-16T15:55:00;16.80;99.90
27162;DHT22;54464;50.558;9.704;2022-10-16T15:57:28;16.80;99.90
27162;DHT22;54464;50.558;9.704;2022-10-16T15:59:54;16.80;99.90
27162;DHT22;54464;50.558;9.704;2022-10-16T16:02:20;16.80;99.90
27162;DHT22;54464;50.558;9.704;2022-10-16T16:04:46;16.80;99.90
27162;DHT22;54464;50.558;9.704;2022-10-16T16:07:12;16.80;99.90
27162;DHT22;54464;50.558;9.704;2022-10-16T16:09:37;16.80;99.90
27162;DHT22;54464;50.558;9.704;2022-10-16T16:12:03;16.70;99.90
27162;DHT22;54464;50.558;9.704;2022-10-16T16:14:29;16.70;99.90
27162;DHT22;54464;50.558;9.704;2022-10-16T16:16:55;16.70;99.90
27162;DHT22;54464;50.558;9.704;2022-10-16T16:19:21;16.60;99.90
27162;DHT22;54464;50.558;9.704;2022-10-16T16:21:47;16.60;99.90
27162;DHT22;54464;50.558;9.704;2022-10-16T16:24:13;16.60;99.90
27162;DHT22;54464;50.558;9.704;2022-10-16T16:26:39;16.50;99.90
27162;DHT22;54464;50.558;9.704;2022-10-16T16:29:11;16.50;99.90
27162;DHT22;54464;50.558;9.704;2022-10-16T16:31:38;16.40;99.90
27162;DHT22;54464;50.558;9.704;2022-10-16T16:34:04;16.40;99.90
27162;DHT22;54464;50.558;9.704;2022-10-16T16:36:30;16.40;99.90
27162;DHT22;54464;50.558;9.704;2022-10-16T16:38:56;16.30;99.90
27162;DHT22;54464;50.558;9.704;2022-10-16T16:41:24;16.30;99.90
27162;DHT22;54464;50.558;9.704;2022-10-16T16:43:51;16.30;99.90
27162;DHT22;54464;50.558;9.704;2022-10-16T16:46:21;16.20;99.90
27162;DHT22;54464;50.558;9.704;2022-10-16T16:48:47;16.20;99.90
27162;DHT22;54464;50.558;9.704;2022-10-16T16:51:19;16.20;99.90
27162;DHT22;54464;50.558;9.704;2022-10-16T16:53:47;16.10;99.90
27162;DHT22;54464;50.558;9.704;2022-10-16T16:56:14;16.20;99.90
27162;DHT22;54464;50.558;9.704;2022-10-16T16:58:40;16.20;99.90
27162;DHT22;54464;50.558;9.704;2022-10-16T17:01:07;16.10;99.90
27162;DHT22;54464;50.558;9.704;2022-10-16T17:03:35;16.10;99.90
27162;DHT22;54464;50.558;9.704;2022-10-16T17:06:05;16.10;99.90
27162;DHT22;54464;50.558;9.704;2022-10-16T17:08:32;16.10;99.90
27162;DHT22;54464;50.558;9.704;2022-10-16T17:10:58;16.10;99.90
27162;DHT22;54464;50.558;9.704;2022-10-16T17:13:25;16.10;99.90
27162;DHT22;54464;50.558;9.704;2022-10-16T17:15:52;16.10;99.90
27162;DHT22;54464;50.558;9.704;2022-10-16T17:18:19;16.10;99.90
27162;DHT22;54464;50.558;9.704;2022-10-16T17:20:45;16.10;99.90
27162;DHT22;54464;50.558;9.704;2022-10-16T17:23:11;16.10;99.90
27162;DHT22;54464;50.558;9.704;2022-10-16T17:25:38;16.00;99.90
27162;DHT22;54464;50.558;9.704;2022-10-16T17:28:04;16.00;99.90
27162;DHT22;54464;50.558;9.704;2022-10-16T17:30:31;16.00;99.90
27162;DHT22;54464;50.558;9.704;2022-10-16T17:32:58;16.00;99.90
27162;DHT22;54464;50.558;9.704;2022-10-16T17:35:24;16.00;99.90
27162;DHT22;54464;50.558;9.704;2022-10-16T17:37:51;16.00;99.90
27162;DHT22;54464;50.558;9.704;2022-10-16T17:40:17;16.00;99.90